Record high temperature 36.3°C Record low temperature -6.1°C Record high gust 90.1 km/h Record high average 70.9 km/h Record daily rain 58.2 mm Record low windchill -9.9°C Record high barometer 1045.9 hPa Record low barometer 985.2 hPa
Daily high pressure 1019.3 hPa Daily low pressure 1016.5 hPa Daily low windchill 1.1°C Daily high heat index 9.0°C Daily high gust speed 24.1 kmh ESE Daily high average speed 5.6 kmh E
Stazione meteo Crema centro
ULTIMO RILEVAMENTO ALLE ORE: 11:10 GIORNO: 02 Aprile 2020 prossimo aggiornamento ore: 11:15
Tempo presenteSunny/Dry Temperatura attuale 8.9°C (48.1°F), temperatura apparente 7.5°C, Apparent temp solar 12.5°C
Temperatura massima (da mezzanotte)9.0°C alle ore: 11:06 Temperatura minima (da mezzanotte)1.3°C alle ore: 06:49
Forza media vento (dieci minuti)0.9 kmh (0.5 kts) Direzione vento (dieci minuti)NE (45°)
Temperatura vento 8.9°C Massima forza (ultima ora)8.0 kmh (4.3 kts) alle ore: 10:50
Massima forza (da mezzanotte)24.1 kmh (13.0 kts) alle ore: 07:57 Massimo vento 1 minuto (da mezzanotte)5.6 kmh (3.0 kts) alle ore: 08:35
Pioggia (ultima ora)0.0 mm Pioggia (da mezzanotte)0.0 mm (0.00 in.)---
Pioggia Questo mese 0.0 mm (0.00 in.) Pioggia Questo anno 93.7 mm (3.69 in.)
Massima pioggia per minuto (ultima ora)0.0 mm/min Massima pioggia per ora (ultime 6 ore)0.0 mm/ore
Pioggia di ieri 0.0 mm DewPoint 0.6°C (Wet Bulb :5.6°C )
Umidita 56 %, Humidex 6.9°C Pressione S.L.M.1016.8 hPa (QNH 1016.8 hPa
Variazione pressione -0.1 hPa (ultima ora) Tendenza (ultime 1 ore)Stazionaria
Variazione pressione (ultime 12 ore)-2.5 hPa Variazione pressione (ultime 6 ore)-0.2 hPa
Current Solar 599 W/mē
Maximum solar (da mezzanotte) 599 W/mē Minimum solar (da mezzanotte)0 W/mē
Current 03:03 hours of sunshine today, current sky: Sunny
Sunshine hours for the year: 354:16 hrs Sunshine hours for the month: 08:59 hrs
Current evapotranspiration rate 0.8 mm per day. Yesterday's reading 2.1

Questa pagina e` aggiornata con i dati della stazione meteo DAVIS VP Premere Reload o Refresh per facilitare la lettura dei dati aggiornati.

Status report of weather station: IK2CHZ - Crema meteo



Weather report/warning/Metars

Milano / Linate, Italy (LIML) 45-26N 009-17E 103M
Apr 02, 2020 - 04:50 AM EDT / 2020.04.02 0850 UTC
Wind: Variable at 2 MPH (2 KT):0
Visibility: greater than 7 mile(s):0
Temperature: 48 F (9 C)
Dew Point: 30 F (-1 C)
Relative Humidity: 49%
Pressure (altimeter): 30.00 in. Hg (1016 hPa)
ob: LIML 020850Z VRB02KT CAVOK 09/M01 Q1016 NOSIG
cycle: 9
Bergamo / Orio Al Serio, Italy (LIME) 45-40N 009-42E 237M
Apr 02, 2020 - 04:50 AM EDT / 2020.04.02 0850 UTC
Wind: Variable at 3 MPH (3 KT):0
Visibility: greater than 7 mile(s):0
Temperature: 46 F (8 C)
Dew Point: 32 F (0 C)
Relative Humidity: 56%
Pressure (altimeter): 30.00 in. Hg (1016 hPa)
ob: LIME 020850Z VRB03KT CAVOK 08/M00 Q1016 NOSIG
cycle: 9
Piacenza, Italy (LIMS) 44-55N 009-44E 138M
Apr 02, 2020 - 03:55 AM EDT / 2020.04.02 0755 UTC
Wind: from the SE (140 degrees) at 1 MPH (1 KT):0
Visibility: greater than 7 mile(s):0
Temperature: 42 F (6 C)
Dew Point: 28 F (-2 C)
Relative Humidity: 56%
Pressure (altimeter): 29.97 in. Hg (1015 hPa)
ob: LIMS 020755Z 14001KT CAVOK 06/M02 Q1015
cycle: 8